Time;durP1;ratioP1;P1;durP2;ratioP2;P2;SDS_P1;SDS_P2;PMS_P1;PMS_P2;Temp;Humidity;BMP_temperature;BMP_pressure;BME280_temperature;BME280_humidity;BME280_pressure;Samples;Min_cycle;Max_cycle;Signal;HPM_P1;HPM_P2
2022/10/15 00:04:15;;;;;;;10.48;8.25;;;;;;;;;;10535655;28;20501;-48
2022/10/15 00:09:15;;;;;;;12.60;8.60;;;;;;;;;;10535448;28;20107;-47
2022/10/15 00:14:15;;;;;;;11.55;8.63;;;;;;;;;;10535205;28;20024;-47
2022/10/15 00:19:16;;;;;;;10.77;8.65;;;;;;;;;;10535850;28;20115;-46
2022/10/15 00:24:16;;;;;;;11.25;8.75;;;;;;;;;;10535353;28;20373;-47
2022/10/15 00:29:16;;;;;;;10.57;8.75;;;;;;;;;;10534165;28;20048;-45
2022/10/15 00:34:16;;;;;;;12.93;9.32;;;;;;;;;;10534709;28;20032;-47
2022/10/15 00:39:17;;;;;;;11.02;9.13;;;;;;;;;;10533284;28;20031;-48
2022/10/15 00:44:20;;;;;;;13.18;8.98;;;;;;;;;;10534245;28;20500;-47
2022/10/15 00:49:29;;;;;;;13.18;9.10;;;;;;;;;;10534916;28;20035;-50
2022/10/15 00:54:31;;;;;;;12.10;8.90;;;;;;;;;;10533656;28;20028;-46
2022/10/15 00:59:35;;;;;;;10.45;8.55;;;;;;;;;;10534018;28;20024;-47
2022/10/15 01:04:36;;;;;;;10.77;8.32;;;;;;;;;;10534422;28;20028;-48
2022/10/15 01:09:37;;;;;;;9.77;8.00;;;;;;;;;;10531472;28;20367;-47
2022/10/15 01:14:47;;;;;;;10.10;7.97;;;;;;;;;;10532272;28;20036;-49
2022/10/15 01:20:06;;;;;;;10.20;8.10;;;;;;;;;;10533869;28;20159;-46
2022/10/15 01:25:24;;;;;;;11.15;8.00;;;;;;;;;;10532671;28;20028;-47
2022/10/15 01:30:37;;;;;;;9.00;7.82;;;;;;;;;;10533101;28;20052;-46
2022/10/15 01:35:41;;;;;;;12.55;8.15;;;;;;;;;;10532702;28;20069;-48
2022/10/15 01:40:53;;;;;;;10.80;8.32;;;;;;;;;;10533795;28;20020;-47
2022/10/15 01:45:56;;;;;;;10.57;7.32;;;;;;;;;;10541718;28;20024;-47
2022/10/15 01:50:58;;;;;;;12.63;7.93;;;;;;;;;;10541534;28;20062;-46
2022/10/15 01:56:07;;;;;;;10.57;8.32;;;;;;;;;;10541299;28;20024;-47
2022/10/15 02:01:07;;;;;;;;;;;;;;;;;;10541601;28;20024;-46
2022/10/15 02:06:09;;;;;;;12.52;8.00;;;;;;;;;;10541162;28;19911;-48
2022/10/15 02:11:12;;;;;;;9.98;7.88;;;;;;;;;;10540101;28;20376;-47
2022/10/15 02:16:22;;;;;;;10.15;7.97;;;;;;;;;;10540664;28;20040;-48
2022/10/15 02:21:25;;;;;;;10.27;7.50;;;;;;;;;;10539001;28;20387;-46
2022/10/15 02:26:28;;;;;;;11.25;7.50;;;;;;;;;;10539880;28;20028;-47
2022/10/15 02:31:29;;;;;;;9.15;7.35;;;;;;;;;;10539990;28;20140;-46
2022/10/15 02:36:30;;;;;;;11.50;7.95;;;;;;;;;;10539279;28;20594;-48
2022/10/15 02:41:32;;;;;;;9.88;7.78;;;;;;;;;;10539371;28;20114;-46
2022/10/15 02:46:32;;;;;;;9.30;7.63;;;;;;;;;;10538973;28;20185;-46
2022/10/15 02:51:33;;;;;;;10.30;7.80;;;;;;;;;;10537893;28;20349;-59
2022/10/15 02:56:34;;;;;;;10.40;7.38;;;;;;;;;;10538772;28;20384;-48
2022/10/15 03:01:34;;;;;;;9.55;7.45;;;;;;;;;;10538496;28;20092;-60
2022/10/15 03:06:34;;;;;;;14.38;8.25;;;;;;;;;;10538796;28;20028;-57
2022/10/15 03:11:36;;;;;;;8.60;7.23;;;;;;;;;;10538750;28;20024;-60
2022/10/15 03:16:37;;;;;;;9.60;7.18;;;;;;;;;;10537644;28;20063;-60
2022/10/15 03:21:37;;;;;;;8.27;7.22;;;;;;;;;;10537543;28;20059;-58
2022/10/15 03:26:38;;;;;;;10.73;7.68;;;;;;;;;;10538271;28;20028;-61
2022/10/15 03:31:38;;;;;;;11.68;7.63;;;;;;;;;;10537080;28;20723;-51
2022/10/15 03:36:39;;;;;;;9.07;7.43;;;;;;;;;;10536683;28;20032;-54
2022/10/15 03:41:40;;;;;;;8.38;7.47;;;;;;;;;;10536426;28;20031;-58
2022/10/15 03:46:40;;;;;;;9.15;7.15;;;;;;;;;;10536464;28;20145;-51
2022/10/15 03:51:40;;;;;;;7.93;6.68;;;;;;;;;;10537032;28;20028;-58
2022/10/15 03:56:40;;;;;;;8.65;6.80;;;;;;;;;;10536774;28;20040;-60
2022/10/15 04:01:42;;;;;;;8.35;6.97;;;;;;;;;;10535878;28;20064;-59
2022/10/15 04:06:46;;;;;;;9.32;7.72;;;;;;;;;;10535060;28;20020;-58
2022/10/15 04:11:47;;;;;;;8.93;6.72;;;;;;;;;;10535548;28;20027;-60
2022/10/15 04:16:47;;;;;;;8.33;6.93;;;;;;;;;;10534591;28;20471;-59
2022/10/15 04:21:47;;;;;;;7.05;6.35;;;;;;;;;;10535261;28;20472;-57
2022/10/15 04:26:47;;;;;;;9.73;7.88;;;;;;;;;;10534968;28;20468;-60
2022/10/15 04:31:48;;;;;;;8.63;6.87;;;;;;;;;;10534354;28;20040;-57
2022/10/15 04:36:48;;;;;;;7.50;6.70;;;;;;;;;;10534378;28;20537;-60
2022/10/15 04:41:48;;;;;;;7.82;7.00;;;;;;;;;;10535315;28;20103;-55
2022/10/15 04:46:49;;;;;;;9.17;6.77;;;;;;;;;;10534701;28;20065;-60
2022/10/15 04:51:49;;;;;;;9.82;6.88;;;;;;;;;;10533868;28;20495;-57
2022/10/15 04:56:49;;;;;;;8.40;6.75;;;;;;;;;;10534010;28;20059;-51
2022/10/15 05:01:49;;;;;;;7.80;6.78;;;;;;;;;;10534035;28;20033;-52
2022/10/15 05:06:50;;;;;;;7.90;6.90;;;;;;;;;;10533765;28;20395;-51
2022/10/15 05:11:50;;;;;;;7.57;6.77;;;;;;;;;;10533166;28;20089;-52
2022/10/15 05:16:50;;;;;;;8.27;7.07;;;;;;;;;;10533025;28;20107;-46
2022/10/15 05:21:51;;;;;;;8.65;6.93;;;;;;;;;;10532912;28;20024;-59
2022/10/15 05:26:51;;;;;;;8.75;6.85;;;;;;;;;;10532612;28;20404;-58
2022/10/15 05:31:51;;;;;;;8.07;6.45;;;;;;;;;;10531352;28;20399;-56
2022/10/15 05:36:51;;;;;;;9.47;7.00;;;;;;;;;;10532344;28;20028;-57
2022/10/15 05:41:52;;;;;;;7.97;6.60;;;;;;;;;;10532577;28;20035;-51
2022/10/15 05:46:52;;;;;;;8.18;6.85;;;;;;;;;;10532786;28;20024;-60
2022/10/15 05:51:53;;;;;;;9.50;7.40;;;;;;;;;;10532329;28;20533;-52
2022/10/15 05:56:53;;;;;;;8.18;5.95;;;;;;;;;;10531702;28;20545;-53
2022/10/15 06:01:53;;;;;;;8.43;6.50;;;;;;;;;;10532073;28;20372;-59
2022/10/15 06:06:54;;;;;;;7.73;6.93;;;;;;;;;;10531758;28;20031;-57
2022/10/15 06:11:55;;;;;;;8.38;6.75;;;;;;;;;;10531679;28;20375;-57
2022/10/15 06:16:55;;;;;;;8.43;6.70;;;;;;;;;;10531669;28;20119;-56
2022/10/15 06:21:56;;;;;;;7.88;7.07;;;;;;;;;;10531628;28;20036;-59
2022/10/15 06:26:57;;;;;;;8.07;6.80;;;;;;;;;;10532792;28;20093;-53
2022/10/15 06:31:57;;;;;;;9.32;6.82;;;;;;;;;;10538928;28;20040;-55
2022/10/15 06:36:58;;;;;;;8.13;7.15;;;;;;;;;;10539117;28;20071;-54
2022/10/15 06:41:58;;;;;;;9.63;7.32;;;;;;;;;;10537399;28;20371;-46
2022/10/15 06:46:58;;;;;;;10.23;7.95;;;;;;;;;;10537782;28;20329;-54
2022/10/15 06:51:58;;;;;;;11.98;8.07;;;;;;;;;;10538111;28;20047;-47
2022/10/15 06:56:59;;;;;;;8.98;7.38;;;;;;;;;;10537621;28;20345;-54
2022/10/15 07:01:59;;;;;;;9.27;7.47;;;;;;;;;;10537994;28;20020;-47
2022/10/15 07:06:59;;;;;;;10.23;8.33;;;;;;;;;;10537507;28;20020;-55
2022/10/15 07:12:00;;;;;;;12.68;8.02;;;;;;;;;;10538433;28;20039;-54
2022/10/15 07:17:00;;;;;;;12.13;7.43;;;;;;;;;;10537471;28;20032;-56
2022/10/15 07:22:00;;;;;;;12.98;8.23;;;;;;;;;;10537628;28;20024;-51
2022/10/15 07:27:00;;;;;;;15.75;7.65;;;;;;;;;;10536905;28;20032;-46
2022/10/15 07:32:01;;;;;;;14.50;7.73;;;;;;;;;;10536253;28;20399;-46
2022/10/15 07:37:01;;;;;;;14.73;8.00;;;;;;;;;;10536210;28;20475;-47
2022/10/15 07:42:01;;;;;;;13.00;7.53;;;;;;;;;;10536516;28;20029;-48
2022/10/15 07:47:02;;;;;;;25.20;8.20;;;;;;;;;;10536523;28;20035;-48
2022/10/15 07:52:02;;;;;;;14.33;8.30;;;;;;;;;;10535447;28;20020;-57
2022/10/15 07:57:02;;;;;;;31.48;7.82;;;;;;;;;;10534028;28;20126;-46
2022/10/15 08:02:03;;;;;;;13.43;7.67;;;;;;;;;;10534411;28;20065;-47
2022/10/15 08:07:03;;;;;;;10.93;7.63;;;;;;;;;;10535712;28;20028;-47
2022/10/15 08:12:05;;;;;;;20.13;7.93;;;;;;;;;;10535302;28;20448;-48
2022/10/15 08:17:06;;;;;;;21.45;8.13;;;;;;;;;;10535441;28;20042;-46
2022/10/15 08:22:06;;;;;;;10.33;8.63;;;;;;;;;;10534694;28;20030;-50
2022/10/15 08:27:06;;;;;;;20.33;9.43;;;;;;;;;;10534921;28;20448;-46
2022/10/15 08:32:06;;;;;;;17.30;8.40;;;;;;;;;;10534356;28;20465;-47
2022/10/15 08:37:07;;;;;;;16.30;8.43;;;;;;;;;;10534547;28;20357;-50
2022/10/15 08:42:27;;;;;;;20.73;9.80;;;;;;;;;;10533980;28;20035;-47
2022/10/15 08:47:33;;;;;;;19.55;8.48;;;;;;;;;;10532571;28;20046;-48
2022/10/15 08:52:47;;;;;;;23.65;8.65;;;;;;;;;;10531177;28;20044;-46
2022/10/15 08:57:58;;;;;;;32.53;9.57;;;;;;;;;;10531477;28;20024;-47
2022/10/15 09:03:04;;;;;;;16.77;8.60;;;;;;;;;;10532425;28;20029;-46
2022/10/15 09:08:19;;;;;;;25.38;9.65;;;;;;;;;;10533015;28;20110;-48
2022/10/15 09:13:28;;;;;;;24.20;9.75;;;;;;;;;;10532248;28;20032;-49
2022/10/15 09:18:29;;;;;;;;;;;;;;;;;;10533143;28;20054;-46
2022/10/15 09:23:32;;;;;;;24.05;8.90;;;;;;;;;;10530229;28;20276;-50
2022/10/15 09:28:39;;;;;;;19.48;8.93;;;;;;;;;;10531584;28;20028;-47
2022/10/15 09:33:42;;;;;;;19.77;8.35;;;;;;;;;;10532615;28;20115;-51
2022/10/15 09:38:57;;;;;;;14.98;8.27;;;;;;;;;;10530899;28;20021;-56
2022/10/15 09:43:58;;;;;;;20.02;8.75;;;;;;;;;;10521572;28;20089;-47
2022/10/15 09:49:07;;;;;;;17.92;8.70;;;;;;;;;;10530233;28;20107;-51
2022/10/15 09:54:17;;;;;;;18.05;9.27;;;;;;;;;;10531341;28;20107;-55
2022/10/15 09:59:18;;;;;;;21.55;9.00;;;;;;;;;;10530566;28;20032;-51
2022/10/15 10:04:19;;;;;;;16.70;9.00;;;;;;;;;;10535997;28;20045;-57
2022/10/15 10:09:37;;;;;;;17.48;9.05;;;;;;;;;;10538848;28;20036;-48
2022/10/15 10:14:44;;;;;;;17.33;9.07;;;;;;;;;;10538661;28;20035;-56
2022/10/15 10:19:45;;;;;;;18.58;9.45;;;;;;;;;;10536720;28;20026;-52
2022/10/15 10:24:46;;;;;;;14.02;9.60;;;;;;;;;;10538014;28;20099;-48
2022/10/15 10:29:48;;;;;;;13.68;9.07;;;;;;;;;;10538604;28;20154;-51
2022/10/15 10:34:48;;;;;;;13.85;9.65;;;;;;;;;;10538950;28;20036;-57
2022/10/15 10:39:56;;;;;;;15.95;9.75;;;;;;;;;;10537495;28;20027;-55
2022/10/15 10:45:06;;;;;;;13.57;10.40;;;;;;;;;;10532378;28;20099;-50
2022/10/15 10:50:44;;;;;;;13.52;10.27;;;;;;;;;;10535313;28;20024;-55
2022/10/15 10:55:45;;;;;;;16.75;10.43;;;;;;;;;;10528612;28;20646;-46
2022/10/15 11:00:46;;;;;;;16.98;11.00;;;;;;;;;;10528637;28;20042;-50
2022/10/15 11:05:54;;;;;;;21.50;11.35;;;;;;;;;;10529361;28;20032;-47
2022/10/15 11:11:11;;;;;;;14.80;11.87;;;;;;;;;;10521057;28;20055;-57
2022/10/15 11:16:11;;;;;;;21.77;13.10;;;;;;;;;;10528149;28;20064;-52
2022/10/15 11:21:14;;;;;;;27.00;14.15;;;;;;;;;;10518582;28;20082;-51
2022/10/15 11:26:18;;;;;;;28.63;14.70;;;;;;;;;;10528405;28;20110;-54
2022/10/15 11:31:27;;;;;;;21.23;15.00;;;;;;;;;;10530708;28;20052;-47
2022/10/15 11:36:39;;;;;;;26.80;15.68;;;;;;;;;;10536466;28;20534;-46
2022/10/15 11:41:58;;;;;;;21.65;16.13;;;;;;;;;;10535031;28;20016;-52
2022/10/15 11:47:04;;;;;;;26.20;16.33;;;;;;;;;;10533734;28;20068;-52
2022/10/15 11:52:11;;;;;;;30.40;17.65;;;;;;;;;;10533436;28;20368;-55
2022/10/15 11:57:12;;;;;;;29.50;18.15;;;;;;;;;;10535639;28;20072;-50
2022/10/15 12:02:21;;;;;;;25.25;17.00;;;;;;;;;;10535387;28;20114;-53
2022/10/15 12:07:23;;;;;;;27.05;18.45;;;;;;;;;;10534853;28;20491;-48
2022/10/15 12:12:38;;;;;;;30.00;18.67;;;;;;;;;;10535772;28;20024;-48
2022/10/15 12:17:41;;;;;;;30.17;19.98;;;;;;;;;;10535590;28;20120;-50
2022/10/15 12:22:51;;;;;;;32.70;20.95;;;;;;;;;;10528898;28;20460;-47
2022/10/15 12:28:03;;;;;;;34.15;19.52;;;;;;;;;;10533872;28;20032;-46
2022/10/15 12:33:20;;;;;;;32.80;22.30;;;;;;;;;;10534074;28;20583;-48
2022/10/15 12:38:31;;;;;;;36.63;21.85;;;;;;;;;;10534427;28;20028;-47
2022/10/15 12:43:34;;;;;;;29.08;20.75;;;;;;;;;;10533948;28;20375;-48
2022/10/15 12:48:38;;;;;;;39.10;23.95;;;;;;;;;;10534415;28;20032;-48
2022/10/15 12:53:41;;;;;;;40.17;22.95;;;;;;;;;;10533760;28;20051;-47
2022/10/15 12:58:42;;;;;;;34.22;24.75;;;;;;;;;;10533460;28;20100;-49
2022/10/15 13:03:51;;;;;;;71.05;24.95;;;;;;;;;;10533780;28;20035;-46
2022/10/15 13:09:09;;;;;;;40.13;23.25;;;;;;;;;;10533358;28;20024;-47
2022/10/15 13:14:16;;;;;;;41.08;25.05;;;;;;;;;;10532873;28;20032;-46
2022/10/15 13:19:39;;;;;;;40.45;24.92;;;;;;;;;;10533099;28;20019;-49
2022/10/15 13:24:42;;;;;;;36.08;25.42;;;;;;;;;;10529039;28;20047;-49
2022/10/15 13:29:51;;;;;;;45.65;28.23;;;;;;;;;;10532978;28;20076;-49
2022/10/15 13:34:52;;;;;;;38.28;26.33;;;;;;;;;;10529819;28;20119;-46
2022/10/15 13:39:53;;;;;;;37.53;26.17;;;;;;;;;;10545814;28;20177;-46
2022/10/15 13:45:11;;;;;;;42.90;25.73;;;;;;;;;;10545620;28;20031;-54
2022/10/15 13:50:15;;;;;;;36.20;23.30;;;;;;;;;;10544322;28;20060;-46
2022/10/15 13:55:17;;;;;;;35.45;23.38;;;;;;;;;;10545196;28;20390;-49
2022/10/15 14:00:19;;;;;;;33.97;21.67;;;;;;;;;;10545057;28;20028;-48
2022/10/15 14:05:22;;;;;;;34.92;22.50;;;;;;;;;;10545315;28;20043;-52
2022/10/15 14:10:22;;;;;;;36.85;23.67;;;;;;;;;;10544928;28;20031;-45
2022/10/15 14:15:41;;;;;;;36.45;21.80;;;;;;;;;;10545540;28;20387;-56
2022/10/15 14:20:43;;;;;;;31.75;20.90;;;;;;;;;;10546298;28;20074;-47
2022/10/15 14:25:43;;;;;;;33.30;20.45;;;;;;;;;;10545767;28;20028;-47
2022/10/15 14:30:43;;;;;;;26.70;19.60;;;;;;;;;;10545654;28;20048;-56
2022/10/15 14:35:43;;;;;;;23.10;18.35;;;;;;;;;;10542435;28;20028;-48
2022/10/15 14:41:00;;;;;;;32.53;19.77;;;;;;;;;;10545029;28;20498;-45
2022/10/15 14:46:02;;;;;;;25.17;19.65;;;;;;;;;;10543611;28;20082;-46
2022/10/15 14:51:06;;;;;;;29.38;18.42;;;;;;;;;;10536714;28;20027;-47
2022/10/15 14:56:15;;;;;;;27.20;17.70;;;;;;;;;;10538804;28;20130;-49
2022/10/15 15:01:15;;;;;;;30.55;18.08;;;;;;;;;;10538482;28;20028;-47
2022/10/15 15:06:16;;;;;;;25.23;17.07;;;;;;;;;;10538899;28;20097;-47
2022/10/15 15:11:21;;;;;;;27.10;17.80;;;;;;;;;;10538117;28;20433;-47
2022/10/15 15:16:21;;;;;;;27.63;16.75;;;;;;;;;;10537701;28;20024;-46
2022/10/15 15:21:22;;;;;;;23.33;16.50;;;;;;;;;;10537642;28;20020;-45
2022/10/15 15:26:23;;;;;;;24.05;16.45;;;;;;;;;;10537439;28;20061;-45
2022/10/15 15:31:23;;;;;;;25.27;16.38;;;;;;;;;;10537283;28;20051;-46
2022/10/15 15:36:23;;;;;;;20.00;15.10;;;;;;;;;;10537734;28;20504;-45
2022/10/15 15:41:24;;;;;;;20.90;15.55;;;;;;;;;;10533514;28;20036;-45
2022/10/15 15:46:24;;;;;;;19.02;15.15;;;;;;;;;;10532736;28;20036;-45
2022/10/15 15:51:27;;;;;;;20.00;15.13;;;;;;;;;;10535452;28;20028;-45
2022/10/15 15:56:27;;;;;;;24.17;15.50;;;;;;;;;;10536340;28;20032;-46
2022/10/15 16:01:27;;;;;;;18.25;14.38;;;;;;;;;;10534583;28;20039;-46
2022/10/15 16:06:27;;;;;;;19.98;14.35;;;;;;;;;;10535719;28;20027;-45
2022/10/15 16:11:28;;;;;;;20.42;15.13;;;;;;;;;;10535453;28;20054;-46
2022/10/15 16:16:28;;;;;;;19.90;14.88;;;;;;;;;;10535922;28;20038;-45
2022/10/15 16:21:28;;;;;;;23.50;14.77;;;;;;;;;;10534963;28;20027;-46
2022/10/15 16:26:29;;;;;;;23.87;14.70;;;;;;;;;;10535181;28;20107;-46
2022/10/15 16:31:31;;;;;;;18.00;13.50;;;;;;;;;;10534889;28;20044;-45
2022/10/15 16:36:31;;;;;;;19.92;13.98;;;;;;;;;;10534949;28;20031;-45
2022/10/15 16:41:31;;;;;;;17.40;14.23;;;;;;;;;;10534462;28;20035;-52
2022/10/15 16:46:32;;;;;;;16.80;13.65;;;;;;;;;;10531286;28;20073;-47
2022/10/15 16:51:32;;;;;;;19.10;13.73;;;;;;;;;;10531217;28;20028;-51
2022/10/15 16:56:33;;;;;;;19.00;13.67;;;;;;;;;;10532683;28;20089;-51
2022/10/15 17:01:34;;;;;;;26.20;15.25;;;;;;;;;;10531194;28;20453;-49
2022/10/15 17:06:35;;;;;;;19.55;15.13;;;;;;;;;;10532422;28;20035;-52
2022/10/15 17:16:37;;;;;;;20.25;13.98;;;;;;;;;;10528836;28;20115;-55
2022/10/15 17:21:37;;;;;;;18.50;13.48;;;;;;;;;;10532330;28;20455;-56
2022/10/15 17:26:39;;;;;;;20.77;14.20;;;;;;;;;;10532265;28;20379;-54
2022/10/15 17:31:39;;;;;;;21.23;13.68;;;;;;;;;;10531728;28;20028;-51
2022/10/15 17:36:43;;;;;;;17.55;13.40;;;;;;;;;;10531868;28;20020;-54
2022/10/15 17:41:44;;;;;;;18.73;13.43;;;;;;;;;;10531982;28;20040;-56
2022/10/15 17:46:44;;;;;;;18.77;13.47;;;;;;;;;;10531018;28;20433;-51
2022/10/15 17:51:45;;;;;;;21.33;13.88;;;;;;;;;;10528286;28;20482;-51
2022/10/15 17:56:47;;;;;;;21.67;13.73;;;;;;;;;;10526220;28;20032;-55
2022/10/15 18:01:47;;;;;;;17.60;13.30;;;;;;;;;;10530703;28;20040;-58
2022/10/15 18:06:47;;;;;;;20.63;13.25;;;;;;;;;;10531757;28;20065;-58
2022/10/15 18:11:48;;;;;;;24.52;13.48;;;;;;;;;;10530963;28;20024;-57
2022/10/15 18:16:48;;;;;;;18.67;13.43;;;;;;;;;;10531046;28;20036;-55
2022/10/15 18:21:48;;;;;;;18.43;14.20;;;;;;;;;;10530498;28;20103;-59
2022/10/15 18:26:49;;;;;;;19.10;13.85;;;;;;;;;;10539201;28;20126;-58
2022/10/15 18:31:50;;;;;;;18.23;12.75;;;;;;;;;;10539460;28;20028;-58
2022/10/15 18:36:50;;;;;;;21.13;14.10;;;;;;;;;;10538641;28;20384;-53
2022/10/15 18:41:50;;;;;;;26.55;15.00;;;;;;;;;;10537545;28;20453;-59
2022/10/15 18:46:51;;;;;;;29.27;15.65;;;;;;;;;;10537464;28;20024;-55
2022/10/15 18:51:52;;;;;;;23.63;15.47;;;;;;;;;;10538366;28;20028;-58
2022/10/15 18:56:53;;;;;;;24.15;15.40;;;;;;;;;;10534238;28;20257;-48
2022/10/15 19:01:53;;;;;;;24.27;14.90;;;;;;;;;;10534318;28;20020;-59
2022/10/15 19:06:53;;;;;;;21.20;14.73;;;;;;;;;;10537735;28;20081;-59
2022/10/15 19:11:54;;;;;;;23.67;15.87;;;;;;;;;;10537896;28;20660;-59
2022/10/15 19:16:55;;;;;;;28.85;15.20;;;;;;;;;;10537743;28;20037;-58
2022/10/15 19:21:56;;;;;;;22.92;14.40;;;;;;;;;;10537084;28;20035;-59
2022/10/15 19:26:56;;;;;;;30.42;15.23;;;;;;;;;;10537026;28;20055;-57
2022/10/15 19:31:56;;;;;;;22.70;14.53;;;;;;;;;;10535601;28;20097;-56
2022/10/15 19:36:56;;;;;;;22.10;13.83;;;;;;;;;;10535888;28;20038;-54
2022/10/15 19:41:57;;;;;;;21.63;14.40;;;;;;;;;;10535748;28;20163;-58
2022/10/15 19:46:57;;;;;;;21.53;14.53;;;;;;;;;;10535860;28;20088;-58
2022/10/15 19:51:59;;;;;;;20.58;14.57;;;;;;;;;;10535041;28;20119;-58
2022/10/15 19:57:00;;;;;;;25.52;14.65;;;;;;;;;;10534942;28;20437;-58
2022/10/15 20:02:00;;;;;;;22.70;13.00;;;;;;;;;;10531897;28;20025;-57
2022/10/15 20:07:00;;;;;;;20.97;14.47;;;;;;;;;;10531835;28;20028;-56
2022/10/15 20:12:00;;;;;;;21.85;14.63;;;;;;;;;;10535021;28;20603;-58
2022/10/15 20:17:01;;;;;;;25.30;14.80;;;;;;;;;;10534204;28;20039;-58
2022/10/15 20:22:01;;;;;;;20.93;14.17;;;;;;;;;;10533081;28;20154;-58
2022/10/15 20:27:01;;;;;;;24.75;14.23;;;;;;;;;;10533595;28;20887;-58
2022/10/15 20:32:02;;;;;;;21.65;13.50;;;;;;;;;;10534355;28;20035;-59
2022/10/15 20:37:02;;;;;;;16.70;12.38;;;;;;;;;;10534459;28;20035;-62
2022/10/15 20:42:02;;;;;;;17.05;12.95;;;;;;;;;;10534586;28;20115;-50
2022/10/15 20:47:04;;;;;;;28.30;13.90;;;;;;;;;;10533399;28;20020;-57
2022/10/15 20:52:05;;;;;;;24.52;13.30;;;;;;;;;;10534774;28;20112;-55
2022/10/15 20:57:05;;;;;;;22.85;12.98;;;;;;;;;;10533700;28;20497;-60
2022/10/15 21:02:05;;;;;;;26.25;13.82;;;;;;;;;;10534055;28;20026;-60
2022/10/15 21:07:06;;;;;;;21.98;12.70;;;;;;;;;;10530552;28;20028;-62
2022/10/15 21:12:08;;;;;;;20.17;12.67;;;;;;;;;;10530067;28;20036;-60
2022/10/15 21:17:12;;;;;;;26.30;13.10;;;;;;;;;;10533525;28;20028;-61
2022/10/15 21:22:15;;;;;;;20.55;13.10;;;;;;;;;;10533107;28;20494;-58
2022/10/15 21:27:20;;;;;;;23.17;11.68;;;;;;;;;;10532584;28;20028;-61
2022/10/15 21:32:24;;;;;;;19.27;11.93;;;;;;;;;;10532496;28;20020;-61
2022/10/15 21:37:28;;;;;;;21.50;12.07;;;;;;;;;;10530971;28;20028;-58
2022/10/15 21:42:33;;;;;;;14.60;11.35;;;;;;;;;;10532607;28;20060;-56
2022/10/15 21:47:36;;;;;;;15.20;10.57;;;;;;;;;;10532986;28;20083;-58
2022/10/15 21:52:36;;;;;;;15.40;11.40;;;;;;;;;;10532448;28;20057;-61
2022/10/15 21:57:37;;;;;;;19.20;11.55;;;;;;;;;;10534013;28;20395;-62
2022/10/15 22:02:37;;;;;;;21.73;12.20;;;;;;;;;;10540527;28;20478;-61
2022/10/15 22:07:37;;;;;;;18.13;12.00;;;;;;;;;;10537182;28;20572;-59
2022/10/15 22:12:38;;;;;;;15.80;11.63;;;;;;;;;;10536882;28;20044;-60
2022/10/15 22:17:38;;;;;;;16.48;11.43;;;;;;;;;;10540452;28;20036;-62
2022/10/15 22:22:38;;;;;;;17.05;10.90;;;;;;;;;;10539680;28;20024;-62
2022/10/15 22:27:38;;;;;;;13.77;10.18;;;;;;;;;;10539925;28;20442;-60
2022/10/15 22:32:39;;;;;;;13.38;10.77;;;;;;;;;;10539765;28;20541;-61
2022/10/15 22:37:39;;;;;;;18.33;10.80;;;;;;;;;;10539483;28;20070;-60
2022/10/15 22:42:39;;;;;;;14.50;10.07;;;;;;;;;;10539583;28;20074;-61
2022/10/15 22:47:39;;;;;;;14.75;11.07;;;;;;;;;;10538555;28;20063;-62
2022/10/15 22:52:40;;;;;;;15.57;10.37;;;;;;;;;;10539215;28;20039;-62
2022/10/15 22:57:40;;;;;;;13.27;10.30;;;;;;;;;;10538794;28;20067;-62
2022/10/15 23:02:40;;;;;;;16.50;10.65;;;;;;;;;;10538637;28;20028;-61
2022/10/15 23:07:41;;;;;;;15.57;9.98;;;;;;;;;;10538075;28;20035;-62
2022/10/15 23:12:42;;;;;;;13.82;10.18;;;;;;;;;;10534210;28;20044;-63
2022/10/15 23:17:42;;;;;;;23.05;11.15;;;;;;;;;;10534749;28;20483;-61
2022/10/15 23:22:42;;;;;;;18.90;10.68;;;;;;;;;;10537535;28;20030;-59
2022/10/15 23:27:44;;;;;;;15.03;10.40;;;;;;;;;;10537005;28;20115;-57
2022/10/15 23:32:44;;;;;;;19.08;11.13;;;;;;;;;;10536101;28;20020;-59
2022/10/15 23:37:44;;;;;;;16.80;9.80;;;;;;;;;;10536780;28;20031;-60
2022/10/15 23:42:45;;;;;;;14.32;10.25;;;;;;;;;;10536619;28;20024;-57
2022/10/15 23:47:45;;;;;;;14.40;9.70;;;;;;;;;;10535814;28;20099;-57
2022/10/15 23:52:45;;;;;;;13.30;9.60;;;;;;;;;;10534871;28;20103;-54
2022/10/15 23:57:46;;;;;;;12.30;9.80;;;;;;;;;;10534836;28;20089;-60
